createdAt,value
2023-02-28T00:00:38.248Z,5.32
2023-02-28T00:03:05.115Z,5.72
2023-02-28T00:05:31.892Z,5.57
2023-02-28T00:07:58.527Z,10.05
2023-02-28T00:10:28.367Z,6.68
2023-02-28T00:12:57.836Z,5.05
2023-02-28T00:15:24.748Z,7.40
2023-02-28T00:17:51.498Z,7.47
2023-02-28T00:20:18.488Z,4.13
2023-02-28T00:22:46.952Z,4.85
2023-02-28T00:25:16.094Z,5.13
2023-02-28T00:27:42.932Z,6.40
2023-02-28T00:30:13.594Z,4.97
2023-02-28T00:32:40.172Z,5.18
2023-02-28T00:35:07.714Z,5.35
2023-02-28T00:37:34.339Z,9.05
2023-02-28T00:40:00.941Z,5.40
2023-02-28T00:42:27.623Z,5.55
2023-02-28T00:44:55.394Z,5.43
2023-02-28T00:47:21.985Z,4.85
2023-02-28T00:49:48.706Z,6.70
2023-02-28T00:52:15.264Z,5.25
2023-02-28T00:54:41.995Z,6.10
2023-02-28T00:57:08.650Z,5.18
2023-02-28T00:59:35.288Z,6.50
2023-02-28T01:02:01.836Z,6.57
2023-02-28T01:04:28.521Z,7.05
2023-02-28T01:06:55.117Z,6.70
2023-02-28T01:09:21.673Z,6.00
2023-02-28T01:11:48.305Z,5.28
2023-02-28T01:14:16.905Z,6.93
2023-02-28T01:16:45.206Z,5.47
2023-02-28T01:19:11.882Z,4.57
2023-02-28T01:21:39.136Z,5.93
2023-02-28T01:24:06.617Z,5.18
2023-02-28T01:26:33.261Z,4.32
2023-02-28T01:29:00.135Z,5.47
2023-02-28T01:31:27.309Z,6.72
2023-02-28T01:33:54.123Z,8.27
2023-02-28T01:36:22.939Z,5.15
2023-02-28T01:38:49.703Z,8.20
2023-02-28T01:41:19.394Z,8.38
2023-02-28T01:43:45.903Z,7.72
2023-02-28T01:46:13.407Z,8.32
2023-02-28T01:48:43.986Z,6.07
2023-02-28T01:51:16.974Z,4.97
2023-02-28T01:53:48.306Z,5.07
2023-02-28T01:56:21.659Z,5.25
2023-02-28T01:58:50.395Z,5.97
2023-02-28T02:01:22.463Z,5.43
2023-02-28T02:03:57.380Z,4.68
2023-02-28T02:06:36.797Z,8.48
2023-02-28T02:09:04.048Z,5.65
2023-02-28T02:11:31.298Z,5.88
2023-02-28T02:14:31.564Z,4.47
2023-02-28T02:17:16.017Z,5.90
2023-02-28T02:20:07.741Z,7.32
2023-02-28T02:23:03.845Z,5.00
2023-02-28T02:25:41.488Z,7.53
2023-02-28T02:28:43.960Z,8.77
2023-02-28T02:31:31.122Z,6.38
2023-02-28T02:34:20.052Z,5.78
2023-02-28T02:36:54.820Z,8.52
2023-02-28T02:39:53.582Z,6.43
2023-02-28T02:42:27.933Z,6.88
2023-02-28T02:45:02.332Z,6.05
2023-02-28T02:47:30.968Z,6.22
2023-02-28T02:49:59.749Z,5.43
2023-02-28T02:52:34.919Z,5.85
2023-02-28T02:55:03.553Z,8.57
2023-02-28T02:57:35.564Z,5.57
2023-02-28T03:00:06.072Z,5.32
2023-02-28T03:02:35.459Z,5.82
2023-02-28T03:05:06.265Z,5.68
2023-02-28T03:07:32.817Z,7.95
2023-02-28T03:09:59.526Z,6.30
2023-02-28T03:12:36.934Z,6.90
2023-02-28T03:15:09.831Z,7.65
2023-02-28T03:17:51.605Z,5.55
2023-02-28T03:20:37.290Z,6.55
2023-02-28T03:23:20.725Z,4.25
2023-02-28T03:25:58.070Z,5.82
2023-02-28T03:28:33.984Z,6.50
2023-02-28T03:31:24.521Z,6.18
2023-02-28T03:34:02.911Z,6.03
2023-02-28T03:36:45.029Z,5.10
2023-02-28T03:39:24.480Z,7.65
2023-02-28T03:41:55.327Z,4.70
2023-02-28T03:44:39.412Z,7.28
2023-02-28T03:47:18.870Z,5.03
2023-02-28T03:49:57.306Z,5.75
2023-02-28T03:52:28.382Z,6.20
2023-02-28T03:54:58.105Z,6.78
2023-02-28T03:57:43.991Z,10.48
2023-02-28T04:00:18.918Z,4.95
2023-02-28T04:02:46.198Z,6.05
2023-02-28T04:05:12.753Z,4.18
2023-02-28T04:07:39.390Z,8.93
2023-02-28T04:10:06.492Z,4.78
2023-02-28T04:12:33.056Z,8.70
2023-02-28T04:14:59.624Z,4.93
2023-02-28T04:17:26.304Z,5.78
2023-02-28T04:19:53.043Z,7.82
2023-02-28T04:22:19.723Z,5.47
2023-02-28T04:24:46.399Z,6.15
2023-02-28T04:27:13.021Z,5.65
2023-02-28T04:29:39.619Z,6.75
2023-02-28T04:32:06.373Z,6.00
2023-02-28T04:34:33.760Z,6.22
2023-02-28T04:37:16.957Z,5.32
2023-02-28T04:39:44.030Z,5.53
2023-02-28T04:42:10.910Z,6.93
2023-02-28T04:44:37.527Z,9.50
2023-02-28T04:47:04.080Z,6.07
2023-02-28T04:49:30.756Z,4.63
2023-02-28T04:51:57.312Z,5.80
2023-02-28T04:54:23.897Z,7.70
2023-02-28T04:56:51.000Z,7.20
2023-02-28T04:59:17.670Z,6.07
2023-02-28T05:01:47.920Z,6.82
2023-02-28T05:04:14.668Z,7.47
2023-02-28T05:06:41.214Z,7.78
2023-02-28T05:09:07.805Z,5.53
2023-02-28T05:11:39.731Z,9.90
2023-02-28T05:14:10.101Z,11.68
2023-02-28T05:16:36.657Z,9.80
2023-02-28T05:19:03.381Z,8.77
2023-02-28T05:21:32.788Z,9.85
2023-02-28T05:24:01.618Z,9.57
2023-02-28T05:26:29.089Z,8.40
2023-02-28T05:28:55.957Z,5.93
2023-02-28T05:31:22.905Z,9.77
2023-02-28T05:33:49.558Z,6.45
2023-02-28T05:36:16.195Z,9.93
2023-02-28T05:38:42.819Z,7.10
2023-02-28T05:41:10.653Z,7.05
2023-02-28T05:43:38.152Z,6.70
2023-02-28T05:46:06.722Z,6.00
2023-02-28T05:48:35.458Z,7.25
2023-02-28T05:51:03.572Z,6.80
2023-02-28T05:53:30.654Z,7.25
2023-02-28T05:55:57.433Z,8.77
2023-02-28T05:58:24.360Z,7.68
2023-02-28T06:00:50.913Z,9.48
2023-02-28T06:03:17.449Z,6.25
2023-02-28T06:05:44.033Z,8.27
2023-02-28T06:08:10.643Z,9.25
2023-02-28T06:10:37.191Z,6.68
2023-02-28T06:13:04.859Z,7.75
2023-02-28T06:15:31.848Z,10.07
2023-02-28T06:17:58.494Z,12.40
2023-02-28T06:20:27.143Z,12.45
2023-02-28T06:22:55.472Z,19.85
2023-02-28T06:25:22.023Z,10.90
2023-02-28T06:27:49.437Z,8.90
2023-02-28T06:30:16.061Z,11.55
2023-02-28T06:32:42.660Z,8.63
2023-02-28T06:35:09.477Z,8.07
2023-02-28T06:37:36.118Z,8.48
2023-02-28T06:40:02.880Z,8.57
2023-02-28T06:42:31.838Z,8.77
2023-02-28T06:44:58.843Z,9.43
2023-02-28T06:47:25.584Z,7.07
2023-02-28T06:49:52.209Z,7.22
2023-02-28T06:52:18.789Z,9.00
2023-02-28T06:54:45.337Z,9.10
2023-02-28T06:57:12.011Z,9.82
2023-02-28T06:59:38.566Z,8.63
2023-02-28T07:02:07.479Z,10.88
2023-02-28T07:04:34.182Z,10.68
2023-02-28T07:07:00.804Z,10.50
2023-02-28T07:09:31.006Z,7.82
2023-02-28T07:11:57.626Z,8.00
2023-02-28T07:14:24.208Z,9.45
2023-02-28T07:16:51.444Z,8.02
2023-02-28T07:19:18.016Z,10.55
2023-02-28T07:21:44.607Z,9.45
2023-02-28T07:24:11.482Z,9.13
2023-02-28T07:26:38.040Z,8.75
2023-02-28T07:29:05.597Z,7.53
2023-02-28T07:31:32.581Z,11.55
2023-02-28T07:33:59.527Z,10.10
2023-02-28T07:36:27.140Z,9.02
2023-02-28T07:38:54.259Z,10.45
2023-02-28T07:41:22.331Z,9.02
2023-02-28T07:43:49.194Z,10.07
2023-02-28T07:46:16.696Z,10.27
2023-02-28T07:48:44.585Z,9.88
2023-02-28T07:51:11.169Z,8.85
2023-02-28T07:53:37.733Z,9.35
2023-02-28T07:56:04.995Z,9.05
2023-02-28T07:58:31.880Z,12.60
2023-02-28T08:00:59.071Z,8.75
2023-02-28T08:03:26.103Z,10.38
2023-02-28T08:05:53.722Z,10.90
2023-02-28T08:08:20.279Z,7.82
2023-02-28T08:10:46.901Z,12.23
2023-02-28T08:13:13.456Z,9.65
2023-02-28T08:15:42.273Z,7.65
2023-02-28T08:18:12.192Z,9.40
2023-02-28T08:20:38.873Z,7.93
2023-02-28T08:23:05.441Z,7.97
2023-02-28T08:25:31.984Z,7.35
2023-02-28T08:27:58.554Z,6.63
2023-02-28T08:30:26.282Z,4.32
2023-02-28T08:32:53.062Z,7.85
2023-02-28T08:35:19.763Z,5.85
2023-02-28T08:37:49.420Z,5.00
2023-02-28T08:40:19.184Z,5.45
2023-02-28T08:42:46.755Z,6.10
2023-02-28T08:45:14.550Z,8.15
2023-02-28T08:47:41.682Z,5.28
2023-02-28T08:50:09.163Z,4.63
2023-02-28T08:52:35.827Z,4.22
2023-02-28T08:55:02.450Z,5.88
2023-02-28T08:57:29.053Z,3.55
2023-02-28T08:59:55.668Z,3.97
2023-02-28T09:02:22.238Z,3.83
2023-02-28T09:04:48.866Z,7.20
2023-02-28T09:07:15.452Z,4.65
2023-02-28T09:09:54.656Z,4.78
2023-02-28T09:12:28.364Z,4.88
2023-02-28T09:14:55.036Z,2.70
2023-02-28T09:17:21.705Z,3.55
2023-02-28T09:19:51.314Z,2.53
2023-02-28T09:22:17.970Z,3.65
2023-02-28T09:24:45.830Z,3.10
2023-02-28T09:27:12.645Z,3.55
2023-02-28T09:29:40.202Z,3.40
2023-02-28T09:32:07.044Z,3.90
2023-02-28T09:34:34.183Z,4.18
2023-02-28T09:37:00.971Z,4.20
2023-02-28T09:39:27.987Z,4.05
2023-02-28T09:41:55.462Z,2.53
2023-02-28T09:44:43.797Z,3.42
2023-02-28T09:47:22.662Z,3.97
2023-02-28T09:49:49.964Z,4.38
2023-02-28T09:52:23.068Z,4.00
2023-02-28T09:54:49.743Z,4.43
2023-02-28T09:57:47.265Z,2.63
2023-02-28T10:00:21.871Z,4.30
2023-02-28T10:03:13.331Z,2.97
2023-02-28T10:05:44.860Z,2.85
2023-02-28T10:08:15.747Z,2.53
2023-02-28T10:10:50.539Z,3.00
2023-02-28T10:13:35.211Z,5.22
2023-02-28T10:16:12.633Z,4.03
2023-02-28T10:18:44.680Z,6.38
2023-02-28T10:21:20.714Z,5.25
2023-02-28T10:23:48.928Z,3.28
2023-02-28T10:26:18.912Z,4.60
2023-02-28T10:28:46.264Z,4.13
2023-02-28T10:31:17.868Z,3.47
2023-02-28T10:33:45.150Z,3.53
2023-02-28T10:36:16.141Z,3.58
2023-02-28T10:38:43.900Z,3.72
2023-02-28T10:41:31.571Z,4.88
2023-02-28T10:44:16.193Z,6.85
2023-02-28T10:46:43.587Z,3.70
2023-02-28T10:49:41.537Z,3.65
2023-02-28T10:52:10.572Z,4.88
2023-02-28T10:54:38.877Z,4.05
2023-02-28T10:57:25.520Z,6.45
2023-02-28T10:59:53.727Z,2.45
2023-02-28T11:02:36.067Z,3.90
2023-02-28T11:05:03.435Z,3.50
2023-02-28T11:07:37.386Z,3.65
2023-02-28T11:10:10.127Z,3.42
2023-02-28T11:12:47.049Z,3.10
2023-02-28T11:15:21.591Z,3.67
2023-02-28T11:18:12.869Z,2.67
2023-02-28T11:20:39.805Z,4.57
2023-02-28T11:23:13.293Z,4.25
2023-02-28T11:25:40.132Z,2.83
2023-02-28T11:28:23.414Z,2.95
2023-02-28T11:31:16.803Z,4.05
2023-02-28T11:33:53.018Z,2.40
2023-02-28T11:36:28.768Z,3.42
2023-02-28T11:38:58.785Z,6.47
2023-02-28T11:41:49.682Z,5.65
2023-02-28T11:44:22.584Z,4.28
2023-02-28T11:46:52.234Z,3.83
2023-02-28T11:49:35.327Z,2.92
2023-02-28T11:52:09.742Z,4.05
2023-02-28T11:54:50.137Z,9.95
2023-02-28T11:57:28.741Z,4.82
2023-02-28T12:00:07.438Z,4.30
2023-02-28T12:03:04.419Z,6.28
2023-02-28T12:05:44.833Z,3.50
2023-02-28T12:08:24.622Z,4.78
2023-02-28T12:11:16.004Z,5.28
2023-02-28T12:14:00.752Z,4.70
2023-02-28T12:16:39.109Z,3.58
2023-02-28T12:19:24.189Z,4.03
2023-02-28T12:22:14.297Z,7.28
2023-02-28T12:25:08.218Z,4.22
2023-02-28T12:27:38.358Z,3.97
2023-02-28T12:30:21.078Z,4.13
2023-02-28T12:33:07.604Z,4.85
2023-02-28T12:35:39.339Z,4.65
2023-02-28T12:38:11.360Z,4.55
2023-02-28T12:41:05.781Z,3.97
2023-02-28T12:43:36.366Z,5.25
2023-02-28T12:46:12.543Z,5.55
2023-02-28T12:48:43.686Z,7.63
2023-02-28T12:51:10.699Z,5.85
2023-02-28T12:53:51.405Z,5.15
2023-02-28T12:56:24.231Z,4.43
2023-02-28T12:58:57.053Z,4.22
2023-02-28T13:01:33.885Z,4.32
2023-02-28T13:04:34.968Z,3.67
2023-02-28T13:07:39.607Z,3.58
2023-02-28T13:10:08.639Z,4.95
2023-02-28T13:12:36.314Z,7.55
2023-02-28T13:15:22.376Z,5.97
2023-02-28T13:17:50.696Z,10.68
2023-02-28T13:20:29.215Z,5.15
2023-02-28T13:22:58.159Z,6.82
2023-02-28T13:25:33.938Z,4.88
2023-02-28T13:28:05.166Z,3.88
2023-02-28T13:30:54.296Z,5.70
2023-02-28T13:33:29.797Z,7.85
2023-02-28T13:36:14.887Z,4.05
2023-02-28T13:38:43.550Z,5.68
2023-02-28T13:41:32.931Z,4.72
2023-02-28T13:44:14.554Z,5.03
2023-02-28T13:46:50.309Z,5.00
2023-02-28T13:49:26.024Z,8.15
2023-02-28T13:51:54.010Z,6.55
2023-02-28T13:54:56.980Z,4.85
2023-02-28T13:58:01.266Z,6.97
2023-02-28T14:00:30.805Z,4.85
2023-02-28T14:03:25.593Z,4.72
2023-02-28T14:06:10.973Z,6.63
2023-02-28T14:08:37.834Z,5.82
2023-02-28T14:11:07.993Z,6.60
2023-02-28T14:13:46.267Z,6.80
2023-02-28T14:16:19.416Z,9.65
2023-02-28T14:18:52.294Z,7.45
2023-02-28T14:21:26.629Z,4.97
2023-02-28T14:24:09.530Z,7.40
2023-02-28T14:26:57.771Z,5.78
2023-02-28T14:29:34.135Z,8.40
2023-02-28T14:32:04.135Z,8.27
2023-02-28T14:34:57.156Z,9.20
2023-02-28T14:37:31.754Z,7.30
2023-02-28T14:39:59.127Z,6.53
2023-02-28T14:42:45.096Z,6.35
2023-02-28T14:45:20.384Z,8.50
2023-02-28T14:47:47.362Z,5.82
2023-02-28T14:50:22.846Z,4.80
2023-02-28T14:52:53.289Z,5.63
2023-02-28T14:55:24.441Z,7.28
2023-02-28T14:58:07.492Z,4.50
2023-02-28T15:00:38.497Z,6.05
2023-02-28T15:03:40.180Z,4.43
2023-02-28T15:06:14.190Z,4.88
2023-02-28T15:08:40.908Z,6.63
2023-02-28T15:11:22.271Z,6.35
2023-02-28T15:13:57.499Z,5.80
2023-02-28T15:16:29.852Z,3.88
2023-02-28T15:19:09.052Z,5.43
2023-02-28T15:21:37.567Z,6.65
2023-02-28T15:24:07.158Z,5.15
2023-02-28T15:26:35.603Z,7.30
2023-02-28T15:29:09.583Z,5.53
2023-02-28T15:31:56.099Z,4.53
2023-02-28T15:34:43.083Z,5.55
2023-02-28T15:37:48.936Z,7.53
2023-02-28T15:40:27.972Z,4.20
2023-02-28T15:43:04.618Z,6.18
2023-02-28T15:45:50.171Z,5.53
2023-02-28T15:48:21.300Z,6.90
2023-02-28T15:50:51.119Z,6.35
2023-02-28T15:53:20.980Z,5.80
2023-02-28T15:55:54.634Z,6.40
2023-02-28T15:58:22.991Z,5.40
2023-02-28T16:01:02.721Z,6.65
2023-02-28T16:03:39.700Z,5.53
2023-02-28T16:06:35.571Z,6.57
2023-02-28T16:09:02.549Z,6.97
2023-02-28T16:11:29.458Z,5.10
2023-02-28T16:13:56.353Z,10.15
2023-02-28T16:16:25.919Z,5.65
2023-02-28T16:18:52.938Z,6.18
2023-02-28T16:21:19.622Z,5.25
2023-02-28T16:23:46.240Z,4.20
2023-02-28T16:26:21.109Z,9.55
2023-02-28T16:28:47.748Z,7.30
2023-02-28T16:31:17.669Z,6.72
2023-02-28T16:33:45.842Z,4.70
2023-02-28T16:36:19.021Z,9.55
2023-02-28T16:38:45.895Z,10.02
2023-02-28T16:41:20.647Z,5.10
2023-02-28T16:43:50.119Z,4.82
2023-02-28T16:46:17.883Z,6.65
2023-02-28T16:48:45.837Z,6.88
2023-02-28T16:51:13.922Z,8.25
2023-02-28T16:53:40.558Z,7.57
2023-02-28T16:56:07.933Z,6.85
2023-02-28T16:58:36.701Z,6.47
2023-02-28T17:01:04.168Z,5.68
2023-02-28T17:03:33.532Z,9.05
2023-02-28T17:06:00.618Z,7.10
2023-02-28T17:08:29.836Z,7.97
2023-02-28T17:10:56.630Z,7.22
2023-02-28T17:13:23.312Z,5.68
2023-02-28T17:15:49.962Z,5.28
2023-02-28T17:18:22.280Z,8.80
2023-02-28T17:20:49.499Z,6.43
2023-02-28T17:23:17.022Z,5.30
2023-02-28T17:25:57.550Z,5.53
2023-02-28T17:28:24.654Z,5.30
2023-02-28T17:30:51.508Z,6.72
2023-02-28T17:33:18.520Z,10.23
2023-02-28T17:35:45.102Z,5.22
2023-02-28T17:38:16.835Z,7.65
2023-02-28T17:40:43.572Z,7.10
2023-02-28T17:43:10.169Z,6.85
2023-02-28T17:45:37.306Z,6.22
2023-02-28T17:48:04.267Z,9.55
2023-02-28T17:50:30.843Z,7.05
2023-02-28T17:52:57.493Z,11.20
2023-02-28T17:55:24.112Z,13.73
2023-02-28T17:57:50.797Z,14.13
2023-02-28T18:00:18.459Z,13.50
2023-02-28T18:02:45.643Z,10.88
2023-02-28T18:05:12.481Z,12.40
2023-02-28T18:07:39.661Z,10.40
2023-02-28T18:10:08.632Z,10.13
2023-02-28T18:12:35.194Z,6.10
2023-02-28T18:15:01.868Z,7.22
2023-02-28T18:17:28.441Z,11.25
2023-02-28T18:19:55.055Z,11.30
2023-02-28T18:22:21.662Z,7.32
2023-02-28T18:24:48.293Z,7.78
2023-02-28T18:27:14.845Z,6.38
2023-02-28T18:29:42.048Z,6.30
2023-02-28T18:32:09.986Z,8.13
2023-02-28T18:34:36.835Z,6.05
2023-02-28T18:37:03.646Z,9.95
2023-02-28T18:39:30.831Z,8.43
2023-02-28T18:41:57.455Z,8.77
2023-02-28T18:44:24.160Z,12.13
2023-02-28T18:46:51.221Z,18.08
2023-02-28T18:49:18.400Z,8.88
2023-02-28T18:51:46.494Z,7.57
2023-02-28T18:54:13.973Z,9.50
2023-02-28T18:56:40.772Z,10.75
2023-02-28T18:59:07.623Z,9.02
2023-02-28T19:01:34.670Z,11.43
2023-02-28T19:04:03.647Z,6.60
2023-02-28T19:06:31.789Z,7.70
2023-02-28T19:09:01.039Z,9.38
2023-02-28T19:11:28.177Z,7.68
2023-02-28T19:13:54.775Z,7.43
2023-02-28T19:16:22.388Z,10.82
2023-02-28T19:18:49.226Z,5.35
2023-02-28T19:21:17.403Z,7.70
2023-02-28T19:23:44.497Z,6.28
2023-02-28T19:26:14.632Z,6.75
2023-02-28T19:28:41.547Z,5.65
2023-02-28T19:31:13.991Z,6.50
2023-02-28T19:33:41.012Z,9.13
2023-02-28T19:36:08.654Z,6.63
2023-02-28T19:38:35.213Z,6.55
2023-02-28T19:41:03.122Z,7.53
2023-02-28T19:43:30.300Z,7.60
2023-02-28T19:45:56.938Z,9.65
2023-02-28T19:48:26.352Z,13.27
2023-02-28T19:51:03.868Z,13.65
2023-02-28T19:53:31.266Z,14.73
2023-02-28T19:55:58.160Z,14.70
2023-02-28T19:58:24.805Z,11.93
2023-02-28T20:00:51.457Z,12.48
2023-02-28T20:03:21.109Z,13.57
2023-02-28T20:05:47.922Z,12.23
2023-02-28T20:08:15.015Z,10.88
2023-02-28T20:10:41.688Z,12.45
2023-02-28T20:13:08.745Z,12.07
2023-02-28T20:15:36.546Z,11.98
2023-02-28T20:18:03.461Z,9.85
2023-02-28T20:20:30.304Z,16.00
2023-02-28T20:22:56.896Z,12.00
2023-02-28T20:25:23.558Z,11.00
2023-02-28T20:27:50.138Z,9.63
2023-02-28T20:30:16.836Z,9.88
2023-02-28T20:32:43.925Z,10.90
2023-02-28T20:35:11.716Z,8.40
2023-02-28T20:37:40.220Z,7.53
2023-02-28T20:40:08.028Z,8.88
2023-02-28T20:42:34.800Z,9.05
2023-02-28T20:45:01.374Z,9.85
2023-02-28T20:47:28.041Z,7.43
2023-02-28T20:49:54.800Z,8.98
2023-02-28T20:52:21.364Z,9.80
2023-02-28T20:54:47.916Z,12.10
2023-02-28T20:57:15.050Z,8.13
2023-02-28T20:59:42.070Z,9.25
2023-02-28T21:02:11.799Z,11.20
2023-02-28T21:04:38.383Z,9.60
2023-02-28T21:07:04.951Z,10.50
2023-02-28T21:09:31.530Z,7.82
2023-02-28T21:11:58.123Z,10.77
2023-02-28T21:14:25.451Z,14.68
2023-02-28T21:16:52.063Z,10.57
2023-02-28T21:19:18.997Z,12.77
2023-02-28T21:21:47.883Z,14.23
2023-02-28T21:24:16.514Z,15.40
2023-02-28T21:26:45.053Z,15.35
2023-02-28T21:29:12.638Z,16.05
2023-02-28T21:31:39.611Z,12.20
2023-02-28T21:34:08.651Z,15.00
2023-02-28T21:36:37.822Z,11.00
2023-02-28T21:39:12.643Z,9.98
2023-02-28T21:41:39.230Z,9.77
2023-02-28T21:44:05.820Z,10.68
2023-02-28T21:46:32.884Z,10.15
2023-02-28T21:48:59.952Z,13.32
2023-02-28T21:51:33.522Z,10.02
2023-02-28T21:54:01.133Z,10.75
2023-02-28T21:56:30.689Z,8.63
2023-02-28T21:59:00.924Z,12.88
2023-02-28T22:01:36.863Z,14.13
2023-02-28T22:04:05.782Z,11.55
2023-02-28T22:06:35.561Z,9.82
2023-02-28T22:09:06.116Z,10.75
2023-02-28T22:11:34.814Z,11.40
2023-02-28T22:14:01.465Z,13.10
2023-02-28T22:16:33.183Z,12.60
2023-02-28T22:19:06.504Z,9.63
2023-02-28T22:21:34.645Z,12.80
2023-02-28T22:24:02.238Z,11.27
2023-02-28T22:26:29.178Z,11.80
2023-02-28T22:28:55.986Z,10.25
2023-02-28T22:31:25.555Z,8.85
2023-02-28T22:33:54.613Z,14.57
2023-02-28T22:36:21.370Z,10.35
2023-02-28T22:38:48.822Z,9.25
2023-02-28T22:41:16.048Z,8.35
2023-02-28T22:43:42.881Z,10.73
2023-02-28T22:46:12.500Z,8.68
2023-02-28T22:48:40.369Z,11.52
2023-02-28T22:51:12.655Z,12.48
2023-02-28T22:53:39.698Z,10.65
2023-02-28T22:56:07.083Z,13.30
2023-02-28T22:58:33.668Z,11.38
2023-02-28T23:01:10.663Z,10.65
2023-02-28T23:03:38.102Z,12.18
2023-02-28T23:06:24.590Z,11.45
2023-02-28T23:08:53.179Z,11.00
2023-02-28T23:11:22.307Z,10.90
2023-02-28T23:13:58.592Z,12.73
2023-02-28T23:16:37.342Z,12.90
2023-02-28T23:19:06.829Z,9.98
2023-02-28T23:21:34.433Z,12.32
2023-02-28T23:24:02.885Z,16.27
2023-02-28T23:26:31.457Z,9.25
2023-02-28T23:28:58.618Z,11.80
2023-02-28T23:31:25.417Z,10.95
2023-02-28T23:33:52.153Z,14.00
2023-02-28T23:36:18.808Z,10.45
2023-02-28T23:38:49.709Z,14.05
2023-02-28T23:41:17.536Z,11.35
2023-02-28T23:43:44.336Z,10.35
2023-02-28T23:46:12.186Z,13.25
2023-02-28T23:48:38.941Z,12.43
2023-02-28T23:51:08.840Z,12.88
2023-02-28T23:53:37.272Z,15.18
2023-02-28T23:56:04.393Z,12.10
2023-02-28T23:58:31.083Z,15.13
